Time;durP1;ratioP1;P1;durP2;ratioP2;P2;SDS_P1;SDS_P2;PMS_P1;PMS_P2;Temp;Humidity;BMP_temperature;BMP_pressure;BME280_temperature;BME280_humidity;BME280_pressure;Samples;Min_cycle;Max_cycle;Signal;HPM_P1;HPM_P2
2021/07/26 00:02:22;;;;;;;6.40;3.60;;;20.70;99.90;;;;;;5032420;28;20069;-66
2021/07/26 00:04:47;;;;;;;5.88;3.20;;;20.60;99.90;;;;;;5032256;28;20083;-66
2021/07/26 00:07:13;;;;;;;6.93;3.40;;;20.50;99.90;;;;;;5031771;28;20026;-65
2021/07/26 00:09:39;;;;;;;7.15;3.90;;;20.70;99.90;;;;;;5032161;28;20026;-66
2021/07/26 00:12:07;;;;;;;5.88;3.40;;;20.80;99.90;;;;;;5032067;28;20040;-66
2021/07/26 00:14:34;;;;;;;6.35;3.50;;;20.80;99.90;;;;;;5032282;28;20124;-66
2021/07/26 00:17:00;;;;;;;7.22;3.22;;;20.80;99.90;;;;;;5030423;28;20072;-66
2021/07/26 00:19:26;;;;;;;5.63;3.33;;;20.80;99.90;;;;;;5032282;28;20112;-66
2021/07/26 00:21:52;;;;;;;6.15;3.60;;;20.70;99.90;;;;;;5031730;28;20471;-65
2021/07/26 00:24:19;;;;;;;5.22;3.25;;;20.70;99.90;;;;;;5032181;28;20140;-66
2021/07/26 00:26:46;;;;;;;5.18;3.58;;;20.60;99.90;;;;;;5032114;28;20033;-66
2021/07/26 00:29:12;;;;;;;7.95;3.30;;;20.50;99.90;;;;;;5031951;28;20037;-66
2021/07/26 00:31:38;;;;;;;5.45;3.38;;;20.40;99.90;;;;;;5033249;28;20382;-66
2021/07/26 00:34:09;;;;;;;7.20;3.30;;;20.50;99.90;;;;;;5035861;28;20042;-66
2021/07/26 00:36:43;;;;;;;5.40;3.20;;;20.40;99.90;;;;;;5036020;28;20374;-66
2021/07/26 00:39:13;;;;;;;6.95;3.65;;;20.30;99.90;;;;;;5035970;28;20121;-66
2021/07/26 00:41:40;;;;;;;5.05;2.95;;;20.30;99.90;;;;;;5035622;28;20045;-66
2021/07/26 00:44:06;;;;;;;8.55;3.20;;;20.30;99.90;;;;;;5035499;28;20041;-66
2021/07/26 00:46:32;;;;;;;6.63;3.83;;;20.30;99.90;;;;;;5035689;28;20032;-66
2021/07/26 00:49:00;;;;;;;6.22;3.20;;;20.20;99.90;;;;;;5035850;28;20087;-66
2021/07/26 00:51:26;;;;;;;6.03;3.45;;;20.20;99.90;;;;;;5034677;28;20100;-66
2021/07/26 00:53:53;;;;;;;7.93;3.65;;;20.10;99.90;;;;;;5035535;28;20037;-66
2021/07/26 00:56:20;;;;;;;7.07;3.42;;;20.10;99.90;;;;;;5035385;28;20021;-66
2021/07/26 00:58:46;;;;;;;5.93;3.55;;;20.10;99.90;;;;;;5034213;28;20032;-66
2021/07/26 01:01:17;;;;;;;7.28;3.83;;;20.00;99.90;;;;;;5034153;28;20034;-66
2021/07/26 01:03:44;;;;;;;7.95;3.88;;;20.00;99.90;;;;;;5035277;28;20037;-66
2021/07/26 01:06:14;;;;;;;6.35;3.63;;;20.00;99.90;;;;;;5035365;28;20033;-66
2021/07/26 01:08:41;;;;;;;5.78;3.80;;;19.90;99.90;;;;;;5034265;28;20369;-66
2021/07/26 01:11:07;;;;;;;5.32;3.30;;;19.90;99.90;;;;;;5035043;28;20041;-66
2021/07/26 01:13:34;;;;;;;8.32;4.10;;;19.90;99.90;;;;;;5035248;28;20419;-66
2021/07/26 01:16:01;;;;;;;6.65;3.63;;;19.90;99.90;;;;;;5035139;28;20094;-66
2021/07/26 01:18:29;;;;;;;7.70;3.47;;;20.10;99.90;;;;;;5034964;28;20033;-65
2021/07/26 01:20:58;;;;;;;7.50;3.60;;;20.00;99.90;;;;;;5035226;28;20025;-65
2021/07/26 01:23:27;;;;;;;5.40;3.45;;;20.00;99.90;;;;;;5035009;28;20057;-65
2021/07/26 01:25:53;;;;;;;9.18;3.65;;;19.90;99.90;;;;;;5034919;28;20092;-65
2021/07/26 01:28:20;;;;;;;6.15;3.38;;;19.80;99.90;;;;;;5034509;28;20437;-65
2021/07/26 01:30:47;;;;;;;8.38;3.70;;;19.80;99.90;;;;;;5034738;28;20422;-66
2021/07/26 01:33:15;;;;;;;5.95;3.63;;;19.70;99.90;;;;;;5034810;28;20025;-65
2021/07/26 01:35:42;;;;;;;7.00;3.50;;;19.70;99.90;;;;;;5034900;28;20030;-65
2021/07/26 01:38:09;;;;;;;6.10;3.97;;;19.80;99.90;;;;;;5034650;28;20036;-66
2021/07/26 01:40:39;;;;;;;8.15;3.78;;;19.70;99.90;;;;;;5034785;28;20033;-65
2021/07/26 01:43:09;;;;;;;6.22;4.22;;;19.70;99.90;;;;;;5034538;28;20123;-66
2021/07/26 01:45:37;;;;;;;6.38;3.42;;;19.70;99.90;;;;;;5034422;28;20041;-66
2021/07/26 01:48:29;;;;;;;6.25;3.30;;;19.50;99.90;;;;;;5034431;28;20033;-66
2021/07/26 01:51:02;;;;;;;5.57;3.83;;;19.60;99.90;;;;;;5033535;28;20025;-66
2021/07/26 01:53:30;;;;;;;6.75;3.95;;;19.50;99.90;;;;;;5033161;28;20040;-66
2021/07/26 01:55:56;;;;;;;7.35;3.67;;;19.50;99.90;;;;;;5034646;28;20099;-66
2021/07/26 01:58:23;;;;;;;5.88;3.63;;;19.40;99.90;;;;;;5032731;28;20036;-66
2021/07/26 02:00:49;;;;;;;5.78;3.88;;;19.40;99.90;;;;;;5034446;28;20103;-66
2021/07/26 02:03:15;;;;;;;10.32;4.05;;;19.40;99.90;;;;;;5034229;28;20061;-66
2021/07/26 02:05:40;;;;;;;5.80;3.65;;;19.40;99.90;;;;;;5034445;28;20090;-66
2021/07/26 02:08:06;;;;;;;8.63;3.88;;;19.30;99.90;;;;;;5034033;28;20142;-66
2021/07/26 02:10:32;;;;;;;8.65;3.83;;;19.40;99.90;;;;;;5034059;28;20033;-66
2021/07/26 02:12:58;;;;;;;7.43;3.80;;;19.30;99.90;;;;;;5034147;28;20056;-66
2021/07/26 02:15:24;;;;;;;6.57;4.00;;;19.30;99.90;;;;;;5033850;28;20486;-66
2021/07/26 02:17:50;;;;;;;7.60;4.53;;;19.20;99.90;;;;;;5033779;28;20034;-66
2021/07/26 02:20:16;;;;;;;6.00;3.78;;;19.20;99.90;;;;;;5034012;28;20034;-66
2021/07/26 02:22:44;;;;;;;7.53;4.40;;;19.30;99.90;;;;;;5034008;28;20064;-66
2021/07/26 02:25:11;;;;;;;6.22;3.53;;;19.20;99.90;;;;;;5032557;28;20532;-66
2021/07/26 02:27:36;;;;;;;7.55;4.32;;;19.30;99.90;;;;;;5033700;28;20037;-66
2021/07/26 02:30:03;;;;;;;7.10;3.80;;;19.20;99.90;;;;;;5033848;28;20493;-66
2021/07/26 02:32:29;;;;;;;6.30;3.70;;;19.20;99.90;;;;;;5033535;28;20555;-66
2021/07/26 02:34:55;;;;;;;6.68;3.97;;;19.20;99.90;;;;;;5033847;28;20029;-66
2021/07/26 02:37:20;;;;;;;6.70;4.25;;;19.10;99.90;;;;;;5033659;28;20340;-66
2021/07/26 02:39:46;;;;;;;7.60;3.75;;;19.20;99.90;;;;;;5033431;28;20099;-66
2021/07/26 02:42:12;;;;;;;6.35;3.55;;;19.10;99.90;;;;;;5032503;28;20112;-66
2021/07/26 02:44:38;;;;;;;7.85;3.85;;;19.10;99.90;;;;;;5033232;28;20053;-66
2021/07/26 02:47:04;;;;;;;7.43;4.03;;;19.10;99.90;;;;;;5033496;28;20069;-66
2021/07/26 02:49:30;;;;;;;6.78;3.78;;;19.10;99.90;;;;;;5033303;28;20033;-66
2021/07/26 02:51:56;;;;;;;6.20;4.03;;;19.10;99.90;;;;;;5033497;28;20036;-64
2021/07/26 02:54:22;;;;;;;6.05;3.63;;;19.00;99.90;;;;;;5032229;28;20116;-65
2021/07/26 02:56:47;;;;;;;7.25;4.18;;;19.00;99.90;;;;;;5033328;28;20090;-65
2021/07/26 02:59:13;;;;;;;5.75;3.65;;;19.00;99.90;;;;;;5033134;28;20053;-65
2021/07/26 03:01:39;;;;;;;5.97;3.65;;;19.00;99.90;;;;;;5032998;28;20627;-65
2021/07/26 03:04:04;;;;;;;5.25;4.13;;;18.90;99.90;;;;;;5033006;28;20033;-65
2021/07/26 03:06:30;;;;;;;8.20;4.07;;;19.00;99.90;;;;;;5032897;28;20083;-65
2021/07/26 03:08:56;;;;;;;9.65;4.82;;;19.00;99.90;;;;;;5033096;28;20034;-66
2021/07/26 03:11:22;;;;;;;10.18;4.32;;;18.90;99.90;;;;;;5033033;28;20037;-65
2021/07/26 03:13:48;;;;;;;10.20;4.50;;;18.80;99.90;;;;;;5032933;28;20029;-65
2021/07/26 03:16:15;;;;;;;9.02;4.00;;;18.70;99.90;;;;;;5032602;28;20044;-65
2021/07/26 03:18:41;;;;;;;6.65;4.10;;;18.60;99.90;;;;;;5032887;28;20040;-65
2021/07/26 03:21:13;;;;;;;6.75;4.05;;;18.60;99.90;;;;;;5032507;28;20513;-65
2021/07/26 03:23:39;;;;;;;6.72;4.22;;;18.70;99.90;;;;;;5032930;28;20064;-66
2021/07/26 03:26:06;;;;;;;6.15;3.75;;;18.60;99.90;;;;;;5032465;28;20029;-65
2021/07/26 03:28:33;;;;;;;5.80;3.88;;;18.70;99.90;;;;;;5032816;28;20049;-64
2021/07/26 03:30:59;;;;;;;8.02;3.72;;;18.70;99.90;;;;;;5032410;28;20434;-65
2021/07/26 03:33:25;;;;;;;8.82;4.20;;;18.70;99.90;;;;;;5032410;28;20041;-65
2021/07/26 03:35:51;;;;;;;7.72;4.28;;;18.70;99.90;;;;;;5032716;28;20105;-65
2021/07/26 03:38:22;;;;;;;6.88;4.53;;;18.70;99.90;;;;;;5032613;28;20140;-65
2021/07/26 03:40:49;;;;;;;6.70;4.05;;;18.70;99.90;;;;;;5032670;28;20112;-65
2021/07/26 03:43:16;;;;;;;7.20;4.22;;;18.70;99.90;;;;;;5032452;28;20512;-65
2021/07/26 03:45:42;;;;;;;7.15;3.35;;;18.70;99.90;;;;;;5032110;28;20091;-70
2021/07/26 03:48:08;;;;;;;9.52;3.90;;;18.70;99.90;;;;;;5021825;28;20056;-69
2021/07/26 03:50:34;;;;;;;7.00;4.55;;;18.70;99.90;;;;;;5027559;28;20486;-69
2021/07/26 03:53:00;;;;;;;5.07;3.40;;;18.70;99.90;;;;;;5034717;28;20116;-71
2021/07/26 03:55:29;;;;;;;7.55;4.30;;;18.70;99.90;;;;;;5031075;28;20037;-70
2021/07/26 03:57:55;;;;;;;7.18;4.22;;;18.60;99.90;;;;;;5037400;28;20050;-70
2021/07/26 04:00:23;;;;;;;8.65;4.55;;;18.60;99.90;;;;;;5031615;28;20029;-69
2021/07/26 04:05:39;;;;;;;5.38;4.00;;;18.40;99.90;;;;;;5031111;28;20025;-70
2021/07/26 04:08:16;;;;;;;5.70;3.95;;;18.40;99.90;;;;;;5030716;28;20091;-71
2021/07/26 04:10:46;;;;;;;8.10;4.63;;;18.30;99.90;;;;;;5032235;28;20080;-68
2021/07/26 04:13:12;;;;;;;6.22;4.30;;;18.40;99.90;;;;;;5030617;28;20108;-69
2021/07/26 04:15:39;;;;;;;5.43;3.53;;;18.40;99.90;;;;;;5032088;28;20430;-71
2021/07/26 04:18:05;;;;;;;9.75;4.82;;;18.60;99.90;;;;;;5009286;28;20125;-72
2021/07/26 04:20:31;;;;;;;7.50;4.15;;;18.70;99.90;;;;;;5011970;28;20117;-70
2021/07/26 04:22:57;;;;;;;6.47;3.95;;;18.70;99.90;;;;;;5012024;28;20037;-72
2021/07/26 04:25:23;;;;;;;6.60;4.10;;;18.70;99.90;;;;;;5012112;28;20029;-71
2021/07/26 04:27:49;;;;;;;9.30;4.40;;;18.60;99.90;;;;;;5012012;28;20084;-68
2021/07/26 04:30:15;;;;;;;6.90;4.40;;;18.60;99.90;;;;;;5011887;28;20029;-71
2021/07/26 04:32:47;;;;;;;6.25;4.03;;;18.50;99.90;;;;;;5010507;28;20490;-70
2021/07/26 04:35:15;;;;;;;5.88;3.72;;;18.50;99.90;;;;;;5012064;28;20052;-69
2021/07/26 04:37:42;;;;;;;6.95;4.18;;;18.60;99.90;;;;;;5012316;28;20029;-69
2021/07/26 04:40:09;;;;;;;7.05;3.90;;;18.60;99.90;;;;;;5010766;28;20499;-70
2021/07/26 04:42:40;;;;;;;7.13;4.57;;;18.60;99.90;;;;;;5012243;28;20034;-73
2021/07/26 04:45:08;;;;;;;8.82;3.97;;;18.70;99.90;;;;;;5010450;28;20081;-73
2021/07/26 04:47:34;;;;;;;6.45;4.30;;;18.70;99.90;;;;;;5019085;28;20064;-73
2021/07/26 04:50:01;;;;;;;7.93;4.32;;;18.70;99.90;;;;;;5030425;28;20076;-73
2021/07/26 04:52:27;;;;;;;10.02;5.10;;;18.80;99.90;;;;;;5031549;28;20033;-73
2021/07/26 04:54:53;;;;;;;6.18;4.10;;;18.70;99.90;;;;;;5030599;28;20037;-73
2021/07/26 04:57:19;;;;;;;6.75;4.55;;;18.70;99.90;;;;;;5031573;28;20105;-74
2021/07/26 04:59:45;;;;;;;9.15;4.25;;;18.80;99.90;;;;;;5031622;28;20176;-74
2021/07/26 05:02:11;;;;;;;6.25;4.03;;;18.80;99.90;;;;;;5031245;28;20061;-74
2021/07/26 05:04:38;;;;;;;6.82;4.13;;;18.90;99.90;;;;;;5031579;28;20041;-73
2021/07/26 05:07:04;;;;;;;6.50;3.83;;;18.90;99.90;;;;;;5031548;28;20041;-73
2021/07/26 05:09:30;;;;;;;6.72;4.18;;;19.00;99.90;;;;;;5026257;28;20402;-73
2021/07/26 05:12:01;;;;;;;5.70;4.07;;;19.00;99.90;;;;;;5030925;28;20445;-72
2021/07/26 05:14:28;;;;;;;6.65;4.05;;;19.10;99.90;;;;;;5030486;28;20041;-72
2021/07/26 05:16:54;;;;;;;8.05;4.43;;;19.10;99.90;;;;;;5034691;28;20040;-73
2021/07/26 05:19:20;;;;;;;10.18;4.65;;;19.30;99.90;;;;;;5054933;28;20032;-73
2021/07/26 05:21:46;;;;;;;7.32;4.70;;;19.40;99.90;;;;;;5055050;28;20021;-72
2021/07/26 05:24:11;;;;;;;7.68;4.55;;;19.50;99.90;;;;;;5053572;28;20381;-73
2021/07/26 05:26:37;;;;;;;6.80;3.95;;;19.50;99.90;;;;;;5054527;28;20462;-77
2021/07/26 05:29:03;;;;;;;8.20;4.45;;;19.60;99.90;;;;;;5054992;28;20033;-72
2021/07/26 05:31:29;;;;;;;6.63;4.07;;;19.60;99.90;;;;;;5054609;28;20025;-73
2021/07/26 05:33:54;;;;;;;11.30;6.93;;;19.60;99.90;;;;;;5054629;28;20073;-70
2021/07/26 05:36:23;;;;;;;7.43;3.80;;;19.70;99.90;;;;;;5054347;28;20120;-67
2021/07/26 05:38:52;;;;;;;7.88;4.13;;;19.80;99.90;;;;;;5036925;28;20040;-68
2021/07/26 05:41:18;;;;;;;6.25;3.90;;;19.80;99.90;;;;;;5044284;28;20036;-73
2021/07/26 05:43:45;;;;;;;6.55;3.90;;;19.90;99.90;;;;;;5033303;28;20030;-63
2021/07/26 05:46:11;;;;;;;9.30;5.18;;;19.90;99.90;;;;;;5034608;28;20034;-63
2021/07/26 05:48:37;;;;;;;6.85;3.97;;;19.90;99.90;;;;;;5034482;28;20045;-64
2021/07/26 05:51:05;;;;;;;6.75;4.13;;;20.00;99.90;;;;;;5033260;28;20538;-64
2021/07/26 05:53:32;;;;;;;7.82;4.00;;;20.10;99.90;;;;;;5028299;28;20041;-64
2021/07/26 05:55:57;;;;;;;6.57;3.78;;;20.20;99.90;;;;;;5034493;28;20029;-64
2021/07/26 05:58:25;;;;;;;10.68;4.10;;;20.10;99.90;;;;;;5034084;28;20029;-64
2021/07/26 06:01:08;;;;;;;8.98;4.13;;;20.00;99.90;;;;;;5036530;28;20033;-64
2021/07/26 06:03:33;;;;;;;7.22;4.25;;;20.10;99.90;;;;;;5021257;28;20033;-64
2021/07/26 06:06:03;;;;;;;7.80;3.65;;;20.00;99.90;;;;;;5022622;28;20034;-65
2021/07/26 06:08:29;;;;;;;8.32;3.80;;;20.00;99.90;;;;;;5013971;28;20030;-64
2021/07/26 06:10:55;;;;;;;5.63;3.80;;;20.10;99.90;;;;;;5013105;28;20502;-64
2021/07/26 06:13:21;;;;;;;7.22;4.40;;;20.00;99.90;;;;;;5012455;28;20096;-65
2021/07/26 06:15:46;;;;;;;5.28;3.65;;;20.00;99.90;;;;;;5012719;28;20095;-65
2021/07/26 06:18:12;;;;;;;6.18;3.95;;;20.10;99.90;;;;;;5013773;28;20459;-65
2021/07/26 06:20:38;;;;;;;7.05;4.28;;;20.10;99.90;;;;;;5013946;28;20026;-67
2021/07/26 06:23:04;;;;;;;9.68;4.47;;;20.10;99.90;;;;;;5013940;28;20034;-65
2021/07/26 06:25:29;;;;;;;6.63;4.18;;;20.00;99.90;;;;;;5014221;28;20398;-65
2021/07/26 06:27:55;;;;;;;5.63;3.47;;;20.10;99.90;;;;;;5014030;28;20096;-65
2021/07/26 06:30:21;;;;;;;6.68;3.85;;;20.20;99.90;;;;;;5012032;28;20635;-65
2021/07/26 06:32:49;;;;;;;6.13;3.78;;;20.30;99.90;;;;;;5014135;28;20049;-64
2021/07/26 06:35:15;;;;;;;5.93;3.53;;;20.30;99.90;;;;;;5014189;28;20502;-64
2021/07/26 06:37:41;;;;;;;6.85;3.70;;;20.40;99.90;;;;;;5014146;28;20069;-64
2021/07/26 06:40:08;;;;;;;11.13;6.47;;;20.40;99.90;;;;;;4996127;28;20120;-64
2021/07/26 06:42:34;;;;;;;7.57;4.15;;;20.40;99.90;;;;;;5013592;28;20061;-64
2021/07/26 06:45:00;;;;;;;7.55;3.92;;;20.40;99.90;;;;;;5013504;28;20526;-66
2021/07/26 06:47:26;;;;;;;6.40;3.70;;;20.60;99.90;;;;;;5013093;28;20030;-67
2021/07/26 06:50:28;;;;;;;7.25;4.15;;;20.60;99.90;;;;;;5018833;28;20052;-66
2021/07/26 06:52:54;;;;;;;6.70;4.35;;;20.60;99.90;;;;;;5029662;28;20112;-66
2021/07/26 06:55:20;;;;;;;8.52;3.58;;;20.80;99.90;;;;;;5032997;28;20112;-66
2021/07/26 06:57:47;;;;;;;7.70;3.88;;;20.80;99.90;;;;;;5033361;28;20029;-67
2021/07/26 07:00:13;;;;;;;9.55;3.85;;;20.70;99.90;;;;;;5032362;28;20079;-65
2021/07/26 07:02:39;;;;;;;7.95;3.60;;;20.80;99.90;;;;;;5030807;28;20033;-65
2021/07/26 07:05:05;;;;;;;8.15;3.70;;;20.70;99.90;;;;;;5031452;28;20108;-65
2021/07/26 07:07:31;;;;;;;6.25;4.05;;;20.80;99.90;;;;;;5032008;28;20030;-65
2021/07/26 07:09:57;;;;;;;6.70;3.70;;;20.90;99.90;;;;;;5032901;28;20029;-65
2021/07/26 07:12:23;;;;;;;8.57;3.97;;;21.10;99.90;;;;;;5033008;28;20112;-65
2021/07/26 07:14:48;;;;;;;11.85;3.63;;;21.20;99.90;;;;;;5033120;28;20390;-65
2021/07/26 07:17:14;;;;;;;6.75;3.20;;;21.30;99.90;;;;;;5031399;28;20355;-65
2021/07/26 07:19:45;;;;;;;11.40;3.85;;;21.30;99.90;;;;;;5031550;28;20359;-65
2021/07/26 07:22:10;;;;;;;7.93;4.28;;;21.40;99.90;;;;;;5032855;28;20038;-65
2021/07/26 07:24:36;;;;;;;7.32;3.13;;;21.30;99.90;;;;;;5032706;28;20040;-66
2021/07/26 07:27:02;;;;;;;5.72;3.30;;;21.40;99.90;;;;;;5031558;28;20060;-66
2021/07/26 07:29:28;;;;;;;9.20;3.30;;;21.50;99.90;;;;;;5031276;28;20119;-66
2021/07/26 07:31:54;;;;;;;6.20;3.40;;;21.50;99.90;;;;;;5031965;28;20490;-66
2021/07/26 07:34:20;;;;;;;8.50;3.92;;;21.60;99.90;;;;;;5032464;28;20125;-65
2021/07/26 07:36:47;;;;;;;6.45;3.58;;;21.70;99.90;;;;;;5032686;28;20030;-65
2021/07/26 07:39:13;;;;;;;4.90;3.55;;;21.70;99.90;;;;;;5032245;28;20075;-65
2021/07/26 07:41:39;;;;;;;4.85;3.33;;;21.70;99.90;;;;;;5031908;28;20034;-65
2021/07/26 07:44:05;;;;;;;7.50;3.92;;;21.70;99.90;;;;;;5032188;28;20045;-65
2021/07/26 07:46:30;;;;;;;5.97;4.03;;;21.70;99.90;;;;;;5032113;28;20063;-63
2021/07/26 07:48:56;;;;;;;6.32;3.75;;;21.90;99.90;;;;;;5032260;28;20455;-64
2021/07/26 07:51:22;;;;;;;11.45;4.38;;;21.90;99.90;;;;;;5032173;28;20520;-64
2021/07/26 07:53:51;;;;;;;5.72;2.72;;;21.90;99.90;;;;;;5032017;28;20055;-64
2021/07/26 07:56:17;;;;;;;7.72;3.65;;;22.20;99.90;;;;;;5032377;28;20029;-64
2021/07/26 07:58:43;;;;;;;4.93;3.30;;;22.30;99.90;;;;;;5032285;28;20030;-65
2021/07/26 08:01:09;;;;;;;5.85;3.25;;;22.40;99.90;;;;;;5031241;28;20033;-65
2021/07/26 08:03:34;;;;;;;8.57;4.20;;;22.40;99.90;;;;;;5031715;28;20053;-64
2021/07/26 08:06:01;;;;;;;7.00;3.08;;;22.40;99.90;;;;;;5032357;28;20038;-64
2021/07/26 08:08:29;;;;;;;6.82;2.83;;;22.60;99.90;;;;;;5040575;28;20116;-64
2021/07/26 08:10:55;;;;;;;6.32;3.13;;;22.80;99.90;;;;;;5052189;28;20029;-64
2021/07/26 08:13:22;;;;;;;6.10;3.17;;;22.90;99.90;;;;;;5051953;28;20033;-66
2021/07/26 08:15:51;;;;;;;7.57;3.35;;;22.90;99.90;;;;;;5052113;28;20476;-64
2021/07/26 08:18:21;;;;;;;6.78;3.80;;;23.00;99.90;;;;;;5051897;28;20033;-64
2021/07/26 08:20:48;;;;;;;5.80;3.87;;;22.80;99.90;;;;;;5052629;28;20033;-64
2021/07/26 08:23:14;;;;;;;4.95;3.05;;;22.90;99.90;;;;;;5052117;28;20326;-64
2021/07/26 08:25:40;;;;;;;9.48;5.25;;;22.80;99.90;;;;;;5051939;28;20037;-64
2021/07/26 08:28:06;;;;;;;7.18;2.90;;;22.80;99.90;;;;;;5051561;28;20627;-64
2021/07/26 08:30:35;;;;;;;5.57;3.22;;;22.80;99.90;;;;;;5050512;28;20078;-63
2021/07/26 08:33:01;;;;;;;5.95;2.83;;;22.80;99.90;;;;;;5049462;28;20037;-64
2021/07/26 08:35:31;;;;;;;5.35;3.00;;;22.80;99.90;;;;;;5049212;28;20033;-63
2021/07/26 08:37:57;;;;;;;5.63;2.92;;;23.00;99.90;;;;;;5050627;28;20110;-65
2021/07/26 08:40:26;;;;;;;6.63;3.10;;;23.10;99.90;;;;;;5050132;28;20024;-65
2021/07/26 08:42:54;;;;;;;5.80;2.88;;;23.30;99.90;;;;;;5033660;28;20048;-64
2021/07/26 08:45:20;;;;;;;6.22;2.70;;;23.30;99.90;;;;;;5051524;28;20037;-64
2021/07/26 08:47:47;;;;;;;7.88;3.60;;;23.40;99.90;;;;;;5050545;28;20433;-64
2021/07/26 08:50:19;;;;;;;8.70;2.80;;;23.40;99.90;;;;;;5050095;28;20025;-64
2021/07/26 08:52:48;;;;;;;5.47;2.92;;;23.40;99.90;;;;;;5052838;28;20094;-64
2021/07/26 08:55:17;;;;;;;7.00;2.70;;;23.60;99.90;;;;;;5055633;28;20037;-64
2021/07/26 08:57:46;;;;;;;6.40;2.50;;;23.70;99.90;;;;;;5055066;28;20561;-65
2021/07/26 09:00:16;;;;;;;5.33;2.50;;;23.70;99.90;;;;;;5055651;28;20095;-64
2021/07/26 09:02:42;;;;;;;4.18;2.70;;;23.90;99.90;;;;;;5055346;28;20493;-64
2021/07/26 09:05:11;;;;;;;5.90;2.42;;;24.10;99.90;;;;;;5055454;28;20029;-64
2021/07/26 09:07:40;;;;;;;6.45;2.95;;;24.20;99.90;;;;;;5055226;28;20032;-64
2021/07/26 09:10:22;;;;;;;6.50;2.90;;;24.20;99.90;;;;;;5053898;28;20082;-65
2021/07/26 09:12:50;;;;;;;5.32;2.67;;;24.30;99.90;;;;;;5055298;28;20041;-64
2021/07/26 09:15:16;;;;;;;4.68;2.70;;;24.30;99.90;;;;;;5055336;28;20029;-65
2021/07/26 09:17:44;;;;;;;5.88;3.55;;;24.40;99.90;;;;;;5054985;28;20037;-65
2021/07/26 09:20:12;;;;;;;7.93;3.08;;;24.50;99.90;;;;;;5053662;28;20041;-65
2021/07/26 09:22:41;;;;;;;4.80;3.00;;;24.70;99.90;;;;;;5054971;28;20041;-65
2021/07/26 09:25:18;;;;;;;5.38;2.60;;;25.00;99.90;;;;;;5055111;28;20169;-64
2021/07/26 09:28:05;;;;;;;4.40;2.42;;;25.10;99.90;;;;;;5054864;28;20124;-65
2021/07/26 09:30:47;;;;;;;5.30;3.20;;;25.00;99.90;;;;;;5054613;28;20108;-65
2021/07/26 09:33:21;;;;;;;6.82;2.80;;;25.10;99.90;;;;;;5054995;28;20021;-66
2021/07/26 09:36:13;;;;;;;5.63;2.67;;;25.10;99.90;;;;;;5053584;28;20091;-65
2021/07/26 09:38:48;;;;;;;4.63;2.67;;;25.10;99.90;;;;;;5054622;28;20033;-65
2021/07/26 09:41:17;;;;;;;5.05;3.00;;;24.90;99.90;;;;;;5054900;28;20108;-71
2021/07/26 09:43:44;;;;;;;3.85;2.10;;;24.70;99.90;;;;;;5054445;28;20492;-70
2021/07/26 09:46:27;;;;;;;6.32;3.13;;;24.90;99.90;;;;;;5054707;28;20545;-70
2021/07/26 09:49:17;;;;;;;6.22;3.25;;;25.00;99.90;;;;;;5054402;28;20083;-71
2021/07/26 09:52:03;;;;;;;5.53;2.87;;;25.10;99.90;;;;;;5054285;28;20478;-71
2021/07/26 09:54:45;;;;;;;6.03;2.78;;;25.30;99.90;;;;;;5054359;28;20287;-70
2021/07/26 09:57:19;;;;;;;5.55;3.20;;;25.50;99.90;;;;;;5054570;28;20033;-73
2021/07/26 09:59:47;;;;;;;4.57;3.05;;;25.40;99.90;;;;;;5054268;28;20029;-71
2021/07/26 10:02:18;;;;;;;5.97;3.05;;;25.40;99.90;;;;;;5054556;28;20118;-66
2021/07/26 10:04:47;;;;;;;5.03;2.85;;;25.30;99.90;;;;;;5052776;28;20033;-69
2021/07/26 10:07:15;;;;;;;8.00;2.70;;;25.30;99.90;;;;;;5050891;28;20033;-70
2021/07/26 10:09:42;;;;;;;5.32;3.08;;;25.50;99.90;;;;;;5054113;28;20055;-75
2021/07/26 10:12:19;;;;;;;4.40;2.90;;;26.00;99.90;;;;;;5052965;28;20033;-76
2021/07/26 10:14:49;;;;;;;4.93;2.72;;;25.80;99.90;;;;;;5053836;28;20029;-70
2021/07/26 10:17:18;;;;;;;7.13;2.72;;;26.00;99.90;;;;;;5052947;28;20132;-70
2021/07/26 10:19:43;;;;;;;5.43;3.20;;;26.20;99.90;;;;;;5052684;28;20590;-75
2021/07/26 10:22:14;;;;;;;4.93;2.85;;;26.70;99.90;;;;;;5052599;28;20047;-66
2021/07/26 10:24:52;;;;;;;6.00;3.00;;;26.30;99.90;;;;;;5052559;28;20482;-66
2021/07/26 10:27:33;;;;;;;4.43;2.50;;;26.80;99.90;;;;;;5052661;28;20029;-68
2021/07/26 10:30:00;;;;;;;6.05;2.60;;;27.20;98.30;;;;;;5053933;28;20568;-64
2021/07/26 10:32:29;;;;;;;5.95;2.83;;;27.10;98.50;;;;;;5053764;28;20033;-64
2021/07/26 10:34:56;;;;;;;4.88;2.92;;;27.20;98.90;;;;;;5053710;28;20041;-64
2021/07/26 10:37:50;;;;;;;5.07;2.65;;;27.00;99.90;;;;;;5052566;28;20040;-63
2021/07/26 10:40:44;;;;;;;3.35;2.10;;;26.90;98.40;;;;;;5053334;28;20390;-64
2021/07/26 10:43:16;;;;;;;5.55;3.00;;;26.90;98.00;;;;;;5053171;28;20068;-63
2021/07/26 10:45:54;;;;;;;4.88;2.72;;;26.80;97.80;;;;;;5053088;28;20038;-64
2021/07/26 10:48:24;;;;;;;4.75;2.53;;;26.40;97.90;;;;;;5053416;28;20036;-64
2021/07/26 10:50:53;;;;;;;14.27;4.60;;;26.00;99.70;;;;;;5053439;28;20044;-62
2021/07/26 10:53:37;;;;;;;8.40;3.92;;;25.00;99.90;;;;;;5052201;28;20098;-63
2021/07/26 10:56:11;;;;;;;12.20;4.25;;;23.80;99.90;;;;;;5053009;28;20525;-63
2021/07/26 10:58:43;;;;;;;8.18;3.40;;;23.30;99.90;;;;;;5053380;28;20033;-63
2021/07/26 11:01:21;;;;;;;6.60;3.10;;;23.00;99.90;;;;;;5053264;28;20061;-62
2021/07/26 11:03:48;;;;;;;7.70;3.40;;;22.70;99.90;;;;;;5053030;28;20040;-63
2021/07/26 11:06:41;;;;;;;6.70;3.65;;;22.80;99.90;;;;;;5051985;28;20041;-63
2021/07/26 11:09:19;;;;;;;8.82;3.20;;;23.10;99.90;;;;;;5053240;28;20090;-64
2021/07/26 11:11:46;;;;;;;5.05;2.90;;;23.40;99.90;;;;;;5052716;28;20044;-65
2021/07/26 11:14:14;;;;;;;5.35;2.92;;;23.60;99.90;;;;;;5034701;28;20029;-66
2021/07/26 11:16:49;;;;;;;8.63;2.63;;;23.70;99.90;;;;;;5052053;28;20033;-64
2021/07/26 11:19:55;;;;;;;4.85;2.70;;;23.60;99.90;;;;;;5052516;28;20094;-63
2021/07/26 11:22:26;;;;;;;6.97;3.15;;;23.80;99.90;;;;;;5052751;28;20041;-62
2021/07/26 11:24:57;;;;;;;4.53;2.58;;;24.00;99.90;;;;;;5052661;28;20037;-63
2021/07/26 11:27:32;;;;;;;8.27;3.22;;;24.20;99.90;;;;;;5052631;28;20024;-63
2021/07/26 11:29:59;;;;;;;6.50;3.15;;;24.30;99.90;;;;;;5052755;28;20041;-64
2021/07/26 11:32:28;;;;;;;6.93;2.92;;;24.40;99.90;;;;;;5052543;28;20051;-62
2021/07/26 11:34:55;;;;;;;6.72;3.42;;;24.50;99.90;;;;;;5052492;28;20032;-64
2021/07/26 11:37:36;;;;;;;5.28;2.70;;;24.60;99.90;;;;;;5051242;28;20025;-62
2021/07/26 11:40:05;;;;;;;5.40;2.60;;;24.70;99.90;;;;;;5052622;28;20025;-64
2021/07/26 11:42:40;;;;;;;4.47;2.50;;;24.90;99.90;;;;;;5051922;28;20044;-64
2021/07/26 11:45:10;;;;;;;4.78;2.47;;;25.20;99.90;;;;;;5050802;28;20095;-63
2021/07/26 11:47:44;;;;;;;5.93;2.63;;;25.50;99.90;;;;;;5051798;28;20494;-62
2021/07/26 11:50:17;;;;;;;4.57;2.80;;;25.60;99.90;;;;;;5052320;28;20055;-63
2021/07/26 11:52:57;;;;;;;7.65;2.67;;;25.80;99.90;;;;;;5048210;28;20479;-63
2021/07/26 11:55:29;;;;;;;3.85;2.45;;;26.20;99.90;;;;;;5012745;28;20148;-63
2021/07/26 11:58:10;;;;;;;6.07;2.60;;;26.20;99.90;;;;;;5027569;28;20026;-63
2021/07/26 12:00:42;;;;;;;4.22;2.50;;;26.20;99.90;;;;;;5011298;28;20064;-63
2021/07/26 12:03:09;;;;;;;6.20;2.70;;;26.30;99.90;;;;;;5012464;28;20048;-63
2021/07/26 12:05:36;;;;;;;4.95;2.67;;;26.00;99.90;;;;;;5011213;28;20060;-63
2021/07/26 12:08:16;;;;;;;6.50;2.65;;;25.70;99.90;;;;;;5012263;28;20068;-63
2021/07/26 12:10:43;;;;;;;4.93;2.83;;;25.50;99.90;;;;;;5022221;28;20047;-63
2021/07/26 12:13:16;;;;;;;6.05;2.83;;;25.40;99.90;;;;;;5032240;28;20053;-62
2021/07/26 12:15:47;;;;;;;6.47;2.75;;;24.90;99.90;;;;;;5031711;28;20075;-63
2021/07/26 12:18:18;;;;;;;6.18;3.03;;;24.60;99.90;;;;;;5031772;28;20021;-64
2021/07/26 12:20:52;;;;;;;5.38;2.70;;;24.50;99.90;;;;;;5032161;28;20536;-62
2021/07/26 12:23:20;;;;;;;5.82;3.00;;;24.50;99.90;;;;;;5032008;28;20046;-62
2021/07/26 12:25:58;;;;;;;5.97;2.83;;;24.50;99.90;;;;;;5032204;28;20055;-64
2021/07/26 12:28:44;;;;;;;4.57;2.38;;;24.60;99.90;;;;;;5036161;28;20059;-64
2021/07/26 12:31:28;;;;;;;5.90;3.08;;;24.80;99.90;;;;;;5035570;28;20034;-63
2021/07/26 12:34:20;;;;;;;4.47;2.50;;;25.00;99.90;;;;;;5035802;28;20029;-64
2021/07/26 12:36:47;;;;;;;5.38;2.72;;;25.00;99.90;;;;;;5035806;28;20482;-64
2021/07/26 12:39:14;;;;;;;5.47;2.70;;;25.00;99.90;;;;;;5034371;28;20061;-64
2021/07/26 12:41:45;;;;;;;4.07;2.38;;;25.00;99.90;;;;;;5034559;28;20033;-65
2021/07/26 12:44:27;;;;;;;3.70;2.17;;;25.40;99.90;;;;;;5035399;28;20482;-63
2021/07/26 12:46:53;;;;;;;5.53;2.20;;;25.90;98.20;;;;;;5035594;28;20041;-63
2021/07/26 12:49:27;;;;;;;5.15;2.30;;;26.00;97.60;;;;;;5035742;28;20037;-64
2021/07/26 12:51:55;;;;;;;6.30;1.95;;;26.20;98.50;;;;;;5035136;28;20044;-64
2021/07/26 12:54:21;;;;;;;3.60;1.90;;;26.60;97.30;;;;;;5034136;28;20120;-63
2021/07/26 12:56:47;;;;;;;3.47;2.00;;;26.70;96.30;;;;;;5035072;28;20029;-64
2021/07/26 12:59:13;;;;;;;4.07;2.05;;;26.30;96.30;;;;;;5034334;28;20470;-62